createdAt,value
2019-02-14T00:02:31.025Z,2.80
2019-02-14T00:05:32.222Z,3.87
2019-02-14T00:08:32.673Z,3.57
2019-02-14T00:11:33.662Z,8.23
2019-02-14T00:14:34.437Z,3.23
2019-02-14T00:17:34.918Z,4.63
2019-02-14T00:20:35.297Z,3.30
2019-02-14T00:23:35.721Z,3.07
2019-02-14T00:26:36.950Z,3.53
2019-02-14T00:29:37.323Z,5.80
2019-02-14T00:32:37.624Z,8.00
2019-02-14T00:35:37.941Z,5.97
2019-02-14T00:38:38.838Z,7.07
2019-02-14T00:41:39.176Z,3.77
2019-02-14T00:44:39.494Z,9.10
2019-02-14T00:47:40.623Z,6.40
2019-02-14T00:50:41.355Z,5.23
2019-02-14T00:53:41.843Z,6.23
2019-02-14T00:56:42.411Z,9.63
2019-02-14T00:59:43.557Z,19.97
2019-02-14T01:02:44.454Z,11.97
2019-02-14T01:05:45.389Z,5.50
2019-02-14T01:08:45.825Z,8.10
2019-02-14T01:11:46.298Z,7.77
2019-02-14T01:14:47.221Z,6.60
2019-02-14T01:17:47.516Z,7.23
2019-02-14T01:20:48.134Z,9.67
2019-02-14T01:23:48.996Z,8.17
2019-02-14T01:26:49.602Z,7.83
2019-02-14T01:29:50.945Z,7.00
2019-02-14T01:32:51.695Z,9.73
2019-02-14T01:35:52.153Z,7.07
2019-02-14T01:38:53.154Z,8.73
2019-02-14T01:41:53.933Z,9.47
2019-02-14T01:44:54.454Z,8.20
2019-02-14T01:47:54.793Z,7.67
2019-02-14T01:50:55.886Z,7.40
2019-02-14T01:53:56.351Z,10.33
2019-02-14T01:56:57.783Z,8.37
2019-02-14T01:59:58.628Z,5.27
2019-02-14T02:02:59.160Z,6.20
2019-02-14T02:05:59.761Z,4.93
2019-02-14T02:09:00.062Z,6.57
2019-02-14T02:12:00.618Z,4.67
2019-02-14T02:15:01.117Z,4.13
2019-02-14T02:18:02.264Z,5.27
2019-02-14T02:21:02.554Z,5.93
2019-02-14T02:24:03.386Z,5.00
2019-02-14T02:27:04.632Z,4.97
2019-02-14T02:30:05.950Z,4.80
2019-02-14T02:33:06.546Z,4.30
2019-02-14T02:36:07.702Z,4.97
2019-02-14T02:39:08.849Z,3.67
2019-02-14T02:42:09.200Z,5.17
2019-02-14T02:45:09.586Z,5.33
2019-02-14T02:48:10.086Z,5.60
2019-02-14T02:51:10.429Z,5.03
2019-02-14T02:54:10.945Z,6.90
2019-02-14T02:57:11.921Z,5.63
2019-02-14T03:00:13.092Z,5.97
2019-02-14T03:03:13.553Z,6.67
2019-02-14T03:06:14.213Z,4.93
2019-02-14T03:09:14.677Z,6.87
2019-02-14T03:12:14.898Z,6.27
2019-02-14T03:15:15.245Z,9.00
2019-02-14T03:18:15.814Z,5.97
2019-02-14T03:21:16.389Z,4.27
2019-02-14T03:24:16.767Z,4.80
2019-02-14T03:27:17.885Z,4.30
2019-02-14T03:30:18.805Z,4.10
2019-02-14T03:33:19.201Z,3.93
2019-02-14T03:36:19.712Z,3.90
2019-02-14T03:39:20.235Z,4.07
2019-02-14T03:42:20.574Z,4.13
2019-02-14T03:45:21.353Z,4.60
2019-02-14T03:48:21.699Z,3.83
2019-02-14T03:51:22.836Z,3.37
2019-02-14T03:54:23.851Z,4.93
2019-02-14T03:57:24.355Z,5.10
2019-02-14T04:00:25.884Z,6.37
2019-02-14T04:03:26.304Z,6.00
2019-02-14T04:06:27.727Z,7.17
2019-02-14T04:09:28.952Z,8.57
2019-02-14T04:12:29.247Z,8.47
2019-02-14T04:15:29.572Z,9.63
2019-02-14T04:18:30.285Z,4.27
2019-02-14T04:21:30.867Z,5.30
2019-02-14T04:24:31.212Z,6.47
2019-02-14T04:27:31.726Z,7.47
2019-02-14T04:30:32.774Z,4.13
2019-02-14T04:33:33.031Z,4.40
2019-02-14T04:36:36.042Z,3.83
2019-02-14T04:39:36.062Z,4.77
2019-02-14T04:42:24.597Z,4.37
2019-02-14T04:45:32.460Z,3.97
2019-02-14T04:48:33.372Z,3.60
2019-02-14T04:51:33.975Z,3.70
2019-02-14T04:54:34.628Z,3.20
2019-02-14T04:57:35.260Z,3.60
2019-02-14T05:00:35.785Z,3.40
2019-02-14T05:03:36.482Z,3.57
2019-02-14T05:06:44.258Z,3.67
2019-02-14T05:09:39.566Z,3.43
2019-02-14T05:12:40.066Z,5.23
2019-02-14T05:15:41.253Z,4.00
2019-02-14T05:18:41.948Z,3.10
2019-02-14T05:21:42.275Z,3.73
2019-02-14T05:24:42.968Z,3.03
2019-02-14T05:27:44.057Z,3.63
2019-02-14T05:30:44.325Z,3.13
2019-02-14T05:33:44.927Z,3.50
2019-02-14T05:36:52.667Z,3.97
2019-02-14T05:39:35.916Z,2.67
2019-02-14T05:42:43.834Z,3.67
2019-02-14T05:45:44.792Z,3.03
2019-02-14T05:48:45.153Z,3.23
2019-02-14T05:51:45.562Z,5.77
2019-02-14T05:54:46.336Z,3.47
2019-02-14T05:57:46.622Z,6.60
2019-02-14T06:00:47.542Z,6.80
2019-02-14T06:03:47.893Z,8.03
2019-02-14T06:06:49.342Z,8.47
2019-02-14T06:09:50.124Z,6.10
2019-02-14T06:12:38.928Z,6.43
2019-02-14T06:18:53.040Z,6.20
2019-02-14T06:21:54.416Z,4.40
2019-02-14T06:24:54.940Z,4.20
2019-02-14T06:27:56.158Z,3.50
2019-02-14T06:30:56.758Z,6.07
2019-02-14T06:33:57.440Z,3.83
2019-02-14T06:36:57.938Z,6.87
2019-02-14T06:39:58.269Z,6.10
2019-02-14T06:42:58.954Z,4.70
2019-02-14T06:45:59.630Z,6.27
2019-02-14T06:48:59.898Z,3.73
2019-02-14T06:52:00.262Z,3.10
2019-02-14T06:55:00.544Z,3.47
2019-02-14T06:58:01.058Z,4.83
2019-02-14T07:01:01.518Z,3.53
2019-02-14T07:04:01.865Z,2.83
2019-02-14T07:07:02.792Z,2.37
2019-02-14T07:10:03.378Z,3.43
2019-02-14T07:13:03.693Z,3.00
2019-02-14T07:16:04.285Z,2.27
2019-02-14T07:19:04.862Z,3.47
2019-02-14T07:22:05.230Z,5.23
2019-02-14T07:25:05.709Z,30.20
2019-02-14T07:28:06.214Z,55.67
2019-02-14T07:31:07.170Z,42.47
2019-02-14T07:34:07.806Z,15.27
2019-02-14T07:37:08.338Z,22.77
2019-02-14T07:40:09.185Z,8.50
2019-02-14T07:43:09.897Z,6.63
2019-02-14T07:46:10.380Z,6.07
2019-02-14T07:49:10.664Z,4.57
2019-02-14T07:52:11.553Z,6.17
2019-02-14T07:55:12.348Z,4.20
2019-02-14T07:58:12.869Z,4.43
2019-02-14T08:01:13.323Z,6.27
2019-02-14T08:04:14.140Z,5.47
2019-02-14T08:07:14.741Z,12.50
2019-02-14T08:10:15.186Z,11.27
2019-02-14T08:13:16.102Z,11.53
2019-02-14T08:16:16.511Z,8.50
2019-02-14T08:19:17.012Z,10.30
2019-02-14T08:22:18.145Z,19.60
2019-02-14T08:25:18.593Z,12.33
2019-02-14T08:28:19.389Z,16.23
2019-02-14T08:31:19.869Z,14.03
2019-02-14T08:34:20.484Z,10.40
2019-02-14T08:37:20.835Z,13.10
2019-02-14T08:40:21.290Z,8.30
2019-02-14T08:43:21.775Z,8.27
2019-02-14T08:46:22.378Z,6.93
2019-02-14T08:49:22.934Z,6.97
2019-02-14T08:52:23.753Z,7.63
2019-02-14T08:55:24.078Z,8.23
2019-02-14T08:58:24.416Z,9.43
2019-02-14T09:01:25.258Z,6.07
2019-02-14T09:04:25.812Z,12.17
2019-02-14T09:07:26.184Z,11.63
2019-02-14T09:10:26.747Z,9.17
2019-02-14T09:13:27.106Z,6.90
2019-02-14T09:16:28.869Z,5.85
2019-02-14T09:19:29.352Z,5.90
2019-02-14T09:22:29.685Z,5.40
2019-02-14T09:25:30.110Z,7.47
2019-02-14T09:28:30.417Z,6.03
2019-02-14T09:31:30.874Z,7.37
2019-02-14T09:34:31.261Z,7.63
2019-02-14T09:37:31.572Z,9.03
2019-02-14T09:40:32.755Z,6.90
2019-02-14T09:43:34.370Z,6.17
2019-02-14T09:46:35.652Z,6.85
2019-02-14T09:49:36.575Z,8.73
2019-02-14T09:52:37.735Z,8.50
2019-02-14T09:55:39.234Z,8.53
2019-02-14T09:58:40.901Z,8.20
2019-02-14T10:01:42.174Z,8.43
2019-02-14T10:04:43.678Z,9.08
2019-02-14T10:07:45.345Z,7.33
2019-02-14T10:10:48.045Z,7.53
2019-02-14T10:13:48.930Z,6.97
2019-02-14T10:16:50.575Z,6.03
2019-02-14T10:19:51.949Z,5.00
2019-02-14T10:22:53.801Z,5.30
2019-02-14T10:25:54.633Z,3.40
2019-02-14T10:28:55.662Z,3.83
2019-02-14T10:31:56.936Z,5.60
2019-02-14T10:34:57.381Z,3.77
2019-02-14T10:37:58.616Z,4.13
2019-02-14T10:40:59.298Z,4.27
2019-02-14T10:44:00.012Z,4.97
2019-02-14T10:47:00.373Z,4.67
2019-02-14T10:50:01.664Z,5.47
2019-02-14T10:53:03.509Z,5.62
2019-02-14T10:56:05.415Z,5.40
2019-02-14T10:59:06.672Z,5.87
2019-02-14T11:02:07.977Z,6.80
2019-02-14T11:05:09.259Z,6.37
2019-02-14T11:08:10.400Z,6.42
2019-02-14T11:11:11.449Z,6.45
2019-02-14T11:14:12.750Z,5.87
2019-02-14T11:17:14.094Z,5.78
2019-02-14T11:20:17.767Z,6.40
2019-02-14T11:23:19.101Z,6.35
2019-02-14T11:26:20.852Z,8.63
2019-02-14T11:29:22.630Z,7.42
2019-02-14T11:32:23.584Z,6.93
2019-02-14T11:35:25.223Z,6.35
2019-02-14T11:38:26.787Z,6.70
2019-02-14T11:41:27.914Z,6.53
2019-02-14T11:44:29.329Z,6.62
2019-02-14T11:47:30.963Z,7.10
2019-02-14T11:50:32.831Z,7.20
2019-02-14T11:53:34.253Z,5.58
2019-02-14T11:56:36.039Z,6.67
2019-02-14T11:59:37.149Z,5.77
2019-02-14T12:02:38.377Z,5.73
2019-02-14T12:05:39.909Z,6.60
2019-02-14T12:08:50.254Z,5.97
2019-02-14T12:11:43.740Z,4.47
2019-02-14T12:14:44.932Z,4.63
2019-02-14T12:17:45.762Z,7.73
2019-02-14T12:20:48.016Z,5.50
2019-02-14T12:23:49.481Z,7.07
2019-02-14T12:26:50.798Z,27.20
2019-02-14T12:29:51.606Z,10.23
2019-02-14T12:32:52.450Z,27.73
2019-02-14T12:35:53.166Z,36.07
2019-02-14T12:38:54.064Z,67.63
2019-02-14T12:41:55.081Z,15.10
2019-02-14T12:44:55.702Z,38.10
2019-02-14T12:47:57.075Z,12.07
2019-02-14T12:50:58.458Z,5.13
2019-02-14T12:53:59.653Z,4.33
2019-02-14T12:57:00.998Z,9.23
2019-02-14T13:00:02.085Z,6.03
2019-02-14T13:03:02.685Z,3.73
2019-02-14T13:06:03.500Z,3.50
2019-02-14T13:09:04.810Z,3.33
2019-02-14T13:12:06.360Z,4.00
2019-02-14T13:15:07.590Z,4.57
2019-02-14T13:18:08.235Z,3.93
2019-02-14T13:21:09.464Z,4.45
2019-02-14T13:24:10.855Z,4.60
2019-02-14T13:27:12.582Z,4.72
2019-02-14T13:30:13.763Z,8.00
2019-02-14T13:33:15.279Z,5.20
2019-02-14T13:36:16.757Z,5.77
2019-02-14T13:39:18.194Z,5.30
2019-02-14T13:42:20.458Z,5.20
2019-02-14T13:45:22.060Z,4.70
2019-02-14T13:48:23.647Z,5.42
2019-02-14T13:51:25.137Z,4.95
2019-02-14T13:54:26.018Z,5.00
2019-02-14T13:57:27.544Z,4.97
2019-02-14T14:00:29.241Z,4.70
2019-02-14T14:03:18.402Z,4.72
2019-02-14T14:06:26.938Z,4.50
2019-02-14T14:09:28.814Z,4.10
2019-02-14T14:12:30.499Z,3.72
2019-02-14T14:15:19.630Z,4.28
2019-02-14T14:21:50.414Z,4.45
2019-02-14T14:24:51.638Z,4.72
2019-02-14T14:27:53.229Z,4.33
2019-02-14T14:30:54.617Z,4.78
2019-02-14T14:33:55.717Z,4.70
2019-02-14T14:36:57.573Z,4.85
2019-02-14T14:39:58.757Z,4.83
2019-02-14T14:43:04.853Z,5.17
2019-02-14T14:46:07.686Z,6.15
2019-02-14T14:49:09.394Z,5.15
2019-02-14T14:52:11.030Z,5.17
2019-02-14T14:55:12.640Z,5.00
2019-02-14T14:58:14.350Z,5.62
2019-02-14T15:01:15.946Z,4.75
2019-02-14T15:04:17.748Z,4.37
2019-02-14T15:07:19.270Z,4.35
2019-02-14T15:10:20.872Z,4.35
2019-02-14T15:13:22.717Z,4.53
2019-02-14T15:16:24.091Z,4.28
2019-02-14T15:19:24.874Z,5.20
2019-02-14T15:22:25.839Z,5.25
2019-02-14T15:25:27.190Z,5.20
2019-02-14T15:28:28.812Z,4.83
2019-02-14T15:31:30.511Z,5.12
2019-02-14T15:37:17.853Z,5.42
2019-02-14T15:40:18.815Z,6.83
2019-02-14T15:43:19.736Z,6.87
2019-02-14T15:46:20.919Z,6.50
2019-02-14T15:49:23.123Z,7.83
2019-02-14T15:52:24.786Z,7.17
2019-02-14T15:55:25.969Z,6.53
2019-02-14T15:58:28.633Z,5.53
2019-02-14T16:01:29.878Z,5.43
2019-02-14T16:04:31.373Z,6.67
2019-02-14T16:07:32.583Z,11.95
2019-02-14T16:10:33.013Z,5.33
2019-02-14T16:13:33.758Z,10.50
2019-02-14T16:16:34.383Z,8.23
2019-02-14T16:19:36.529Z,8.00
2019-02-14T16:22:37.414Z,5.77
2019-02-14T16:25:38.780Z,8.73
2019-02-14T16:28:39.860Z,7.73
2019-02-14T16:31:41.081Z,10.67
2019-02-14T16:34:41.532Z,7.50
2019-02-14T16:37:42.649Z,28.37
2019-02-14T16:40:38.226Z,32.90
2019-02-14T16:43:40.905Z,22.67
2019-02-14T16:46:42.003Z,16.17
2019-02-14T16:49:42.593Z,21.60
2019-02-14T16:52:42.954Z,14.17
2019-02-14T16:55:44.132Z,13.33
2019-02-14T16:58:33.125Z,14.65
2019-02-14T17:01:41.315Z,15.33
2019-02-14T17:04:42.674Z,13.10
2019-02-14T17:07:43.450Z,14.67
2019-02-14T17:10:44.735Z,13.87
2019-02-14T17:13:45.284Z,9.30
2019-02-14T17:16:34.328Z,12.20
2019-02-14T17:19:42.186Z,10.20
2019-02-14T17:22:42.825Z,12.23
2019-02-14T17:25:44.055Z,11.87
2019-02-14T17:28:44.354Z,17.27
2019-02-14T17:31:44.738Z,12.37
2019-02-14T17:34:47.179Z,10.57
2019-02-14T17:37:47.484Z,10.10
2019-02-14T17:40:36.130Z,7.57
2019-02-14T17:43:44.069Z,12.67
2019-02-14T17:46:44.913Z,10.13
2019-02-14T17:49:45.581Z,9.00
2019-02-14T17:52:46.533Z,8.90
2019-02-14T17:55:47.184Z,8.83
2019-02-14T17:58:48.102Z,7.73
2019-02-14T18:01:36.753Z,6.93
2019-02-14T18:04:44.723Z,9.83
2019-02-14T18:07:45.071Z,7.80
2019-02-14T18:10:45.488Z,11.67
2019-02-14T18:13:45.960Z,15.33
2019-02-14T18:16:46.517Z,23.00
2019-02-14T18:19:47.167Z,13.77
2019-02-14T18:22:47.857Z,12.33
2019-02-14T18:25:48.227Z,10.93
2019-02-14T18:28:48.635Z,9.03
2019-02-14T18:31:37.162Z,10.27
2019-02-14T18:34:45.136Z,13.87
2019-02-14T18:37:46.037Z,10.27
2019-02-14T18:40:46.546Z,10.87
2019-02-14T18:43:47.100Z,11.30
2019-02-14T18:46:47.516Z,12.00
2019-02-14T18:49:48.798Z,10.50
2019-02-14T18:52:49.294Z,11.80
2019-02-14T18:55:50.007Z,13.30
2019-02-14T18:58:38.521Z,12.43
2019-02-14T19:04:52.436Z,9.77
2019-02-14T19:07:41.286Z,11.53
2019-02-14T19:10:42.255Z,10.37
2019-02-14T19:13:43.616Z,9.10
2019-02-14T19:16:44.038Z,6.43
2019-02-14T19:19:44.347Z,7.43
2019-02-14T19:22:44.764Z,6.30
2019-02-14T19:25:45.928Z,8.93
2019-02-14T19:28:46.263Z,7.50
2019-02-14T19:31:46.598Z,6.90
2019-02-14T19:34:47.092Z,10.57
2019-02-14T19:37:47.745Z,10.40
2019-02-14T19:40:48.290Z,7.67
2019-02-14T19:43:49.279Z,7.57
2019-02-14T19:46:50.128Z,5.90
2019-02-14T19:49:51.237Z,5.57
2019-02-14T19:52:52.093Z,5.50
2019-02-14T19:55:52.544Z,8.43
2019-02-14T19:58:53.003Z,6.77
2019-02-14T20:01:53.477Z,5.40
2019-02-14T20:04:53.987Z,4.87
2019-02-14T20:07:54.432Z,6.27
2019-02-14T20:10:55.164Z,8.80
2019-02-14T20:13:49.484Z,4.97
2019-02-14T20:16:53.517Z,7.83
2019-02-14T20:19:53.890Z,6.63
2019-02-14T20:22:54.806Z,6.30
2019-02-14T20:25:55.482Z,11.70
2019-02-14T20:28:56.694Z,9.83
2019-02-14T20:31:57.372Z,5.43
2019-02-14T20:34:45.914Z,8.20
2019-02-14T20:37:53.991Z,7.70
2019-02-14T20:40:54.748Z,9.17
2019-02-14T20:43:55.151Z,8.53
2019-02-14T20:46:55.684Z,8.17
2019-02-14T20:49:56.997Z,8.27
2019-02-14T20:52:57.444Z,9.87
2019-02-14T20:55:58.005Z,9.53
2019-02-14T20:58:59.352Z,7.67
2019-02-14T21:01:48.113Z,10.10
2019-02-14T21:04:56.046Z,12.00
2019-02-14T21:07:57.320Z,11.07
2019-02-14T21:10:58.045Z,7.23
2019-02-14T21:13:58.351Z,9.87
2019-02-14T21:16:58.723Z,7.13
2019-02-14T21:19:59.038Z,10.50
2019-02-14T21:22:59.493Z,10.07
2019-02-14T21:26:00.436Z,9.07
2019-02-14T21:29:01.390Z,8.63
2019-02-14T21:32:01.914Z,9.67
2019-02-14T21:35:03.085Z,13.23
2019-02-14T21:38:04.270Z,14.23
2019-02-14T21:40:52.998Z,19.20
2019-02-14T21:44:00.854Z,17.33
2019-02-14T21:47:01.722Z,14.97
2019-02-14T21:50:02.331Z,13.60
2019-02-14T21:53:02.741Z,12.33
2019-02-14T21:56:03.507Z,10.13
2019-02-14T21:59:04.617Z,19.77
2019-02-14T22:01:53.555Z,21.57
2019-02-14T22:05:01.955Z,17.57
2019-02-14T22:08:04.367Z,17.17
2019-02-14T22:11:05.369Z,15.30
2019-02-14T22:14:06.997Z,12.97
2019-02-14T22:16:56.079Z,14.00
2019-02-14T22:23:31.284Z,13.03
2019-02-14T22:26:33.720Z,13.07
2019-02-14T22:29:35.084Z,14.10
2019-02-14T22:32:36.347Z,13.23
2019-02-14T22:35:37.390Z,14.50
2019-02-14T22:38:38.117Z,13.20
2019-02-14T22:41:38.756Z,14.30
2019-02-14T22:44:39.846Z,13.20
2019-02-14T22:47:40.545Z,13.85
2019-02-14T22:50:41.549Z,14.23
2019-02-14T22:53:43.336Z,14.27
2019-02-14T22:56:44.802Z,12.30
2019-02-14T22:59:46.436Z,12.43
2019-02-14T23:02:47.331Z,13.43
2019-02-14T23:05:48.258Z,13.10
2019-02-14T23:08:49.255Z,12.30
2019-02-14T23:11:50.825Z,11.85
2019-02-14T23:14:51.990Z,12.88
2019-02-14T23:17:52.878Z,13.00
2019-02-14T23:20:54.050Z,13.90
2019-02-14T23:23:55.211Z,14.03
2019-02-14T23:26:56.111Z,12.90
2019-02-14T23:29:57.168Z,12.23
2019-02-14T23:32:58.784Z,11.90
2019-02-14T23:35:59.556Z,12.23
2019-02-14T23:39:00.343Z,13.20
2019-02-14T23:42:00.910Z,13.07
2019-02-14T23:45:01.593Z,12.37
2019-02-14T23:48:03.366Z,12.53
2019-02-14T23:51:04.440Z,13.08
2019-02-14T23:54:05.967Z,13.43
2019-02-14T23:57:07.108Z,12.20
